sensor_id;sensor_type;location;lat;lon;timestamp;temperature;humidity
20700;DHT22;10511;51.232;9.420;2023-04-03T00:00:49;3.10;99.90
20700;DHT22;10511;51.232;9.420;2023-04-03T00:03:18;3.10;99.90
20700;DHT22;10511;51.232;9.420;2023-04-03T00:05:46;3.00;99.90
20700;DHT22;10511;51.232;9.420;2023-04-03T00:08:15;3.00;99.90
20700;DHT22;10511;51.232;9.420;2023-04-03T00:10:45;2.90;99.90
20700;DHT22;10511;51.232;9.420;2023-04-03T00:13:14;2.80;99.90
20700;DHT22;10511;51.232;9.420;2023-04-03T00:15:42;2.80;99.90
20700;DHT22;10511;51.232;9.420;2023-04-03T00:18:11;2.70;99.90
20700;DHT22;10511;51.232;9.420;2023-04-03T00:20:38;2.70;99.90
20700;DHT22;10511;51.232;9.420;2023-04-03T00:23:06;2.60;99.90
20700;DHT22;10511;51.232;9.420;2023-04-03T00:25:35;2.60;99.90
20700;DHT22;10511;51.232;9.420;2023-04-03T00:28:06;2.50;99.90
20700;DHT22;10511;51.232;9.420;2023-04-03T00:30:33;2.50;99.90
20700;DHT22;10511;51.232;9.420;2023-04-03T00:33:01;2.40;99.90
20700;DHT22;10511;51.232;9.420;2023-04-03T00:35:29;2.40;99.90
20700;DHT22;10511;51.232;9.420;2023-04-03T00:37:57;2.30;99.90
20700;DHT22;10511;51.232;9.420;2023-04-03T00:40:26;2.30;99.90
20700;DHT22;10511;51.232;9.420;2023-04-03T00:42:58;2.20;99.90
20700;DHT22;10511;51.232;9.420;2023-04-03T00:45:32;2.20;99.90
20700;DHT22;10511;51.232;9.420;2023-04-03T00:48:01;2.20;99.90
20700;DHT22;10511;51.232;9.420;2023-04-03T00:50:34;2.10;99.90
20700;DHT22;10511;51.232;9.420;2023-04-03T00:53:04;2.00;99.90
20700;DHT22;10511;51.232;9.420;2023-04-03T00:55:33;2.00;99.90
20700;DHT22;10511;51.232;9.420;2023-04-03T00:58:03;2.00;99.90
20700;DHT22;10511;51.232;9.420;2023-04-03T01:00:34;2.00;99.90
20700;DHT22;10511;51.232;9.420;2023-04-03T01:03:03;2.00;99.90
20700;DHT22;10511;51.232;9.420;2023-04-03T01:05:32;2.00;99.90
20700;DHT22;10511;51.232;9.420;2023-04-03T01:08:00;1.90;99.90
20700;DHT22;10511;51.232;9.420;2023-04-03T01:10:28;1.80;99.90
20700;DHT22;10511;51.232;9.420;2023-04-03T01:12:55;1.80;99.90
20700;DHT22;10511;51.232;9.420;2023-04-03T01:15:24;1.80;99.90
20700;DHT22;10511;51.232;9.420;2023-04-03T01:17:54;1.70;99.90
20700;DHT22;10511;51.232;9.420;2023-04-03T01:20:46;1.70;99.90
20700;DHT22;10511;51.232;9.420;2023-04-03T01:23:37;1.70;99.90
20700;DHT22;10511;51.232;9.420;2023-04-03T01:26:08;1.70;99.90
20700;DHT22;10511;51.232;9.420;2023-04-03T01:28:37;1.70;99.90
20700;DHT22;10511;51.232;9.420;2023-04-03T01:31:10;1.60;99.90
20700;DHT22;10511;51.232;9.420;2023-04-03T01:33:42;1.60;99.90
20700;DHT22;10511;51.232;9.420;2023-04-03T01:36:16;1.60;99.90
20700;DHT22;10511;51.232;9.420;2023-04-03T01:38:44;1.50;99.90
20700;DHT22;10511;51.232;9.420;2023-04-03T01:41:11;1.40;99.90
20700;DHT22;10511;51.232;9.420;2023-04-03T01:43:37;1.40;99.90
20700;DHT22;10511;51.232;9.420;2023-04-03T01:46:05;1.40;99.90
20700;DHT22;10511;51.232;9.420;2023-04-03T01:48:32;1.30;99.90
20700;DHT22;10511;51.232;9.420;2023-04-03T01:51:00;1.40;99.90
20700;DHT22;10511;51.232;9.420;2023-04-03T01:53:27;1.30;99.90
20700;DHT22;10511;51.232;9.420;2023-04-03T01:55:54;1.30;99.90
20700;DHT22;10511;51.232;9.420;2023-04-03T01:58:21;1.30;99.90
20700;DHT22;10511;51.232;9.420;2023-04-03T02:00:48;1.20;99.90
20700;DHT22;10511;51.232;9.420;2023-04-03T02:03:14;1.20;99.90
20700;DHT22;10511;51.232;9.420;2023-04-03T02:05:41;1.20;99.90
20700;DHT22;10511;51.232;9.420;2023-04-03T02:08:10;1.20;99.90
20700;DHT22;10511;51.232;9.420;2023-04-03T02:10:37;1.10;99.90
20700;DHT22;10511;51.232;9.420;2023-04-03T02:13:04;1.10;99.90
20700;DHT22;10511;51.232;9.420;2023-04-03T02:15:30;1.10;99.90
20700;DHT22;10511;51.232;9.420;2023-04-03T02:17:57;1.00;99.90
20700;DHT22;10511;51.232;9.420;2023-04-03T02:20:24;0.90;99.90
20700;DHT22;10511;51.232;9.420;2023-04-03T02:22:51;0.90;99.90
20700;DHT22;10511;51.232;9.420;2023-04-03T02:25:19;0.90;99.90
20700;DHT22;10511;51.232;9.420;2023-04-03T02:27:47;0.90;99.90
20700;DHT22;10511;51.232;9.420;2023-04-03T02:30:14;0.80;99.90
20700;DHT22;10511;51.232;9.420;2023-04-03T02:32:41;0.80;99.90
20700;DHT22;10511;51.232;9.420;2023-04-03T02:35:08;0.70;99.90
20700;DHT22;10511;51.232;9.420;2023-04-03T02:37:35;0.70;99.90
20700;DHT22;10511;51.232;9.420;2023-04-03T02:40:03;0.70;99.90
20700;DHT22;10511;51.232;9.420;2023-04-03T02:42:32;0.70;99.90
20700;DHT22;10511;51.232;9.420;2023-04-03T02:44:59;0.60;99.90
20700;DHT22;10511;51.232;9.420;2023-04-03T02:47:26;0.60;99.90
20700;DHT22;10511;51.232;9.420;2023-04-03T02:49:53;0.60;99.90
20700;DHT22;10511;51.232;9.420;2023-04-03T02:52:20;0.50;99.90
20700;DHT22;10511;51.232;9.420;2023-04-03T02:54:47;0.50;99.90
20700;DHT22;10511;51.232;9.420;2023-04-03T02:57:14;0.50;99.90
20700;DHT22;10511;51.232;9.420;2023-04-03T02:59:42;0.50;99.90
20700;DHT22;10511;51.232;9.420;2023-04-03T03:02:10;0.40;99.90
20700;DHT22;10511;51.232;9.420;2023-04-03T03:04:37;0.40;99.90
20700;DHT22;10511;51.232;9.420;2023-04-03T03:07:04;0.40;99.90
20700;DHT22;10511;51.232;9.420;2023-04-03T03:09:31;0.40;99.90
20700;DHT22;10511;51.232;9.420;2023-04-03T03:11:58;0.30;99.90
20700;DHT22;10511;51.232;9.420;2023-04-03T03:14:25;0.30;99.90
20700;DHT22;10511;51.232;9.420;2023-04-03T03:16:53;0.30;99.90
20700;DHT22;10511;51.232;9.420;2023-04-03T03:19:20;0.20;99.90
20700;DHT22;10511;51.232;9.420;2023-04-03T03:21:47;0.20;99.90
20700;DHT22;10511;51.232;9.420;2023-04-03T03:24:14;0.20;99.90
20700;DHT22;10511;51.232;9.420;2023-04-03T03:26:42;0.10;99.90
20700;DHT22;10511;51.232;9.420;2023-04-03T03:29:09;0.10;99.90
20700;DHT22;10511;51.232;9.420;2023-04-03T03:31:36;0.10;99.90
20700;DHT22;10511;51.232;9.420;2023-04-03T03:34:04;0.00;99.90
20700;DHT22;10511;51.232;9.420;2023-04-03T03:36:31;0.00;99.90
20700;DHT22;10511;51.232;9.420;2023-04-03T03:38:58;0.00;99.90
20700;DHT22;10511;51.232;9.420;2023-04-03T03:41:25;0.00;99.90
20700;DHT22;10511;51.232;9.420;2023-04-03T03:43:51;-0.10;99.90
20700;DHT22;10511;51.232;9.420;2023-04-03T03:46:18;-0.10;99.90
20700;DHT22;10511;51.232;9.420;2023-04-03T03:48:45;-0.20;99.90
20700;DHT22;10511;51.232;9.420;2023-04-03T03:51:13;-0.20;99.90
20700;DHT22;10511;51.232;9.420;2023-04-03T03:53:40;-0.30;99.90
20700;DHT22;10511;51.232;9.420;2023-04-03T03:56:07;-0.30;99.90
20700;DHT22;10511;51.232;9.420;2023-04-03T03:58:34;-0.30;99.90
20700;DHT22;10511;51.232;9.420;2023-04-03T04:01:01;-0.30;99.90
20700;DHT22;10511;51.232;9.420;2023-04-03T04:03:28;-0.30;99.90
20700;DHT22;10511;51.232;9.420;2023-04-03T04:05:55;-0.30;99.90
20700;DHT22;10511;51.232;9.420;2023-04-03T04:08:24;-0.30;99.90
20700;DHT22;10511;51.232;9.420;2023-04-03T04:10:50;-0.40;99.90
20700;DHT22;10511;51.232;9.420;2023-04-03T04:13:17;-0.30;99.90
20700;DHT22;10511;51.232;9.420;2023-04-03T04:15:44;-0.30;99.90
20700;DHT22;10511;51.232;9.420;2023-04-03T04:18:11;-0.40;99.90
20700;DHT22;10511;51.232;9.420;2023-04-03T04:20:38;-0.40;99.90
20700;DHT22;10511;51.232;9.420;2023-04-03T04:23:05;-0.40;99.90
20700;DHT22;10511;51.232;9.420;2023-04-03T04:25:33;-0.40;99.90
20700;DHT22;10511;51.232;9.420;2023-04-03T04:28:00;-0.40;99.90
20700;DHT22;10511;51.232;9.420;2023-04-03T04:30:27;-0.40;99.90
20700;DHT22;10511;51.232;9.420;2023-04-03T04:32:54;-0.40;99.90
20700;DHT22;10511;51.232;9.420;2023-04-03T04:35:21;-0.50;99.90
20700;DHT22;10511;51.232;9.420;2023-04-03T04:37:49;-0.50;99.90
20700;DHT22;10511;51.232;9.420;2023-04-03T04:40:16;-0.50;99.90
20700;DHT22;10511;51.232;9.420;2023-04-03T04:42:45;-0.50;99.90
20700;DHT22;10511;51.232;9.420;2023-04-03T04:45:11;-0.50;99.90
20700;DHT22;10511;51.232;9.420;2023-04-03T04:47:38;-0.60;99.90
20700;DHT22;10511;51.232;9.420;2023-04-03T04:50:06;-0.60;99.90
20700;DHT22;10511;51.232;9.420;2023-04-03T04:52:33;-0.60;99.90
20700;DHT22;10511;51.232;9.420;2023-04-03T04:55:00;-0.60;99.90
20700;DHT22;10511;51.232;9.420;2023-04-03T04:57:27;-0.60;99.90
20700;DHT22;10511;51.232;9.420;2023-04-03T04:59:55;-0.60;99.90
20700;DHT22;10511;51.232;9.420;2023-04-03T05:02:22;-0.60;99.90
20700;DHT22;10511;51.232;9.420;2023-04-03T05:04:49;-0.60;99.90
20700;DHT22;10511;51.232;9.420;2023-04-03T05:07:17;-0.70;99.90
20700;DHT22;10511;51.232;9.420;2023-04-03T05:09:44;-0.60;99.90
20700;DHT22;10511;51.232;9.420;2023-04-03T05:12:11;-0.60;99.90
20700;DHT22;10511;51.232;9.420;2023-04-03T05:14:38;-0.60;99.90
20700;DHT22;10511;51.232;9.420;2023-04-03T05:17:06;-0.70;99.90
20700;DHT22;10511;51.232;9.420;2023-04-03T05:19:33;-0.60;99.90
20700;DHT22;10511;51.232;9.420;2023-04-03T05:22:00;-0.60;99.90
20700;DHT22;10511;51.232;9.420;2023-04-03T05:24:27;-0.60;99.90
20700;DHT22;10511;51.232;9.420;2023-04-03T05:26:53;-0.60;99.90
20700;DHT22;10511;51.232;9.420;2023-04-03T05:29:20;-0.60;99.90
20700;DHT22;10511;51.232;9.420;2023-04-03T05:31:49;-0.60;99.90
20700;DHT22;10511;51.232;9.420;2023-04-03T05:34:17;-0.60;99.90
20700;DHT22;10511;51.232;9.420;2023-04-03T05:36:44;-0.60;99.90
20700;DHT22;10511;51.232;9.420;2023-04-03T05:39:11;-0.60;99.90
20700;DHT22;10511;51.232;9.420;2023-04-03T05:41:38;-0.60;99.90
20700;DHT22;10511;51.232;9.420;2023-04-03T05:44:04;-0.60;99.90
20700;DHT22;10511;51.232;9.420;2023-04-03T05:46:31;-0.50;99.90
20700;DHT22;10511;51.232;9.420;2023-04-03T05:48:58;-0.60;99.90
20700;DHT22;10511;51.232;9.420;2023-04-03T05:51:30;-0.50;99.90
20700;DHT22;10511;51.232;9.420;2023-04-03T05:54:03;-0.50;99.90
20700;DHT22;10511;51.232;9.420;2023-04-03T05:56:32;-0.40;99.90
20700;DHT22;10511;51.232;9.420;2023-04-03T05:58:59;-0.40;99.90
20700;DHT22;10511;51.232;9.420;2023-04-03T06:01:26;-0.40;99.90
20700;DHT22;10511;51.232;9.420;2023-04-03T06:03:53;-0.40;99.90
20700;DHT22;10511;51.232;9.420;2023-04-03T06:06:21;-0.30;99.90
20700;DHT22;10511;51.232;9.420;2023-04-03T06:08:49;-0.30;99.90
20700;DHT22;10511;51.232;9.420;2023-04-03T06:11:16;-0.20;99.90
20700;DHT22;10511;51.232;9.420;2023-04-03T06:13:43;-0.20;99.90
20700;DHT22;10511;51.232;9.420;2023-04-03T06:16:12;-0.10;99.90
20700;DHT22;10511;51.232;9.420;2023-04-03T06:18:40;-0.10;99.90
20700;DHT22;10511;51.232;9.420;2023-04-03T06:21:08;0.00;99.90
20700;DHT22;10511;51.232;9.420;2023-04-03T06:23:34;0.10;99.90
20700;DHT22;10511;51.232;9.420;2023-04-03T06:26:03;0.20;99.90
20700;DHT22;10511;51.232;9.420;2023-04-03T06:28:31;0.20;99.90
20700;DHT22;10511;51.232;9.420;2023-04-03T06:30:57;0.30;99.90
20700;DHT22;10511;51.232;9.420;2023-04-03T06:33:24;0.40;99.90
20700;DHT22;10511;51.232;9.420;2023-04-03T06:35:56;0.40;99.90
20700;DHT22;10511;51.232;9.420;2023-04-03T06:38:23;0.60;99.90
20700;DHT22;10511;51.232;9.420;2023-04-03T06:40:50;0.60;99.90
20700;DHT22;10511;51.232;9.420;2023-04-03T06:43:19;0.70;99.90
20700;DHT22;10511;51.232;9.420;2023-04-03T06:45:46;0.60;99.90
20700;DHT22;10511;51.232;9.420;2023-04-03T06:48:13;0.70;99.90
20700;DHT22;10511;51.232;9.420;2023-04-03T06:50:40;0.70;99.90
20700;DHT22;10511;51.232;9.420;2023-04-03T06:53:07;0.80;99.90
20700;DHT22;10511;51.232;9.420;2023-04-03T06:55:35;0.80;99.90
20700;DHT22;10511;51.232;9.420;2023-04-03T06:58:02;1.00;99.90
20700;DHT22;10511;51.232;9.420;2023-04-03T07:00:31;1.00;99.90
20700;DHT22;10511;51.232;9.420;2023-04-03T07:02:58;1.00;99.90
20700;DHT22;10511;51.232;9.420;2023-04-03T07:05:25;1.10;99.90
20700;DHT22;10511;51.232;9.420;2023-04-03T07:07:52;1.20;99.90
20700;DHT22;10511;51.232;9.420;2023-04-03T07:10:19;1.20;99.90
20700;DHT22;10511;51.232;9.420;2023-04-03T07:12:46;1.20;99.90
20700;DHT22;10511;51.232;9.420;2023-04-03T07:15:13;1.30;99.90
20700;DHT22;10511;51.232;9.420;2023-04-03T07:17:42;1.40;99.90
20700;DHT22;10511;51.232;9.420;2023-04-03T07:20:09;1.40;99.90
20700;DHT22;10511;51.232;9.420;2023-04-03T07:22:37;1.50;99.90
20700;DHT22;10511;51.232;9.420;2023-04-03T07:25:04;1.60;99.90
20700;DHT22;10511;51.232;9.420;2023-04-03T07:27:33;1.80;99.90
20700;DHT22;10511;51.232;9.420;2023-04-03T07:29:59;1.70;99.90
20700;DHT22;10511;51.232;9.420;2023-04-03T07:32:26;1.80;99.90
20700;DHT22;10511;51.232;9.420;2023-04-03T07:34:54;1.80;99.90
20700;DHT22;10511;51.232;9.420;2023-04-03T07:37:21;2.00;99.90
20700;DHT22;10511;51.232;9.420;2023-04-03T07:39:48;2.20;99.90
20700;DHT22;10511;51.232;9.420;2023-04-03T07:42:16;2.20;99.90
20700;DHT22;10511;51.232;9.420;2023-04-03T07:44:43;2.30;99.90
20700;DHT22;10511;51.232;9.420;2023-04-03T07:47:10;2.40;99.90
20700;DHT22;10511;51.232;9.420;2023-04-03T07:49:37;2.40;99.90
20700;DHT22;10511;51.232;9.420;2023-04-03T07:52:07;2.30;99.90
20700;DHT22;10511;51.232;9.420;2023-04-03T07:54:35;2.60;99.90
20700;DHT22;10511;51.232;9.420;2023-04-03T07:57:02;2.80;99.90
20700;DHT22;10511;51.232;9.420;2023-04-03T07:59:29;2.80;99.90
20700;DHT22;10511;51.232;9.420;2023-04-03T08:01:56;2.90;99.90
20700;DHT22;10511;51.232;9.420;2023-04-03T08:04:23;2.80;99.90
20700;DHT22;10511;51.232;9.420;2023-04-03T08:06:50;2.90;99.90
20700;DHT22;10511;51.232;9.420;2023-04-03T08:09:18;2.90;99.90
20700;DHT22;10511;51.232;9.420;2023-04-03T08:11:45;2.90;99.90
20700;DHT22;10511;51.232;9.420;2023-04-03T08:14:12;3.00;99.90
20700;DHT22;10511;51.232;9.420;2023-04-03T08:16:44;3.20;99.90
20700;DHT22;10511;51.232;9.420;2023-04-03T08:19:11;3.30;99.90
20700;DHT22;10511;51.232;9.420;2023-04-03T08:21:39;3.40;99.90
20700;DHT22;10511;51.232;9.420;2023-04-03T08:24:07;3.50;99.90
20700;DHT22;10511;51.232;9.420;2023-04-03T08:26:36;3.60;99.90
20700;DHT22;10511;51.232;9.420;2023-04-03T08:29:03;3.80;99.90
20700;DHT22;10511;51.232;9.420;2023-04-03T08:31:30;3.80;99.90
20700;DHT22;10511;51.232;9.420;2023-04-03T08:33:57;4.00;99.90
20700;DHT22;10511;51.232;9.420;2023-04-03T08:36:25;4.10;99.90
20700;DHT22;10511;51.232;9.420;2023-04-03T08:38:54;4.30;99.90
20700;DHT22;10511;51.232;9.420;2023-04-03T08:41:29;4.40;99.90
20700;DHT22;10511;51.232;9.420;2023-04-03T08:44:03;4.20;99.90
20700;DHT22;10511;51.232;9.420;2023-04-03T08:46:43;4.00;99.90
20700;DHT22;10511;51.232;9.420;2023-04-03T08:49:21;4.20;99.90
20700;DHT22;10511;51.232;9.420;2023-04-03T08:51:50;4.30;99.90
20700;DHT22;10511;51.232;9.420;2023-04-03T08:54:25;4.30;99.90
20700;DHT22;10511;51.232;9.420;2023-04-03T08:56:54;4.50;99.90
20700;DHT22;10511;51.232;9.420;2023-04-03T08:59:26;4.60;99.90
20700;DHT22;10511;51.232;9.420;2023-04-03T09:01:54;4.70;99.90
20700;DHT22;10511;51.232;9.420;2023-04-03T09:04:22;4.80;99.90
20700;DHT22;10511;51.232;9.420;2023-04-03T09:06:54;4.80;99.90
20700;DHT22;10511;51.232;9.420;2023-04-03T09:09:30;4.60;99.90
20700;DHT22;10511;51.232;9.420;2023-04-03T09:12:05;4.60;99.90
20700;DHT22;10511;51.232;9.420;2023-04-03T09:14:39;4.80;99.90
20700;DHT22;10511;51.232;9.420;2023-04-03T09:17:14;4.80;99.90
20700;DHT22;10511;51.232;9.420;2023-04-03T09:19:49;4.60;99.90
20700;DHT22;10511;51.232;9.420;2023-04-03T09:22:23;4.50;99.90
20700;DHT22;10511;51.232;9.420;2023-04-03T09:24:57;4.50;99.90
20700;DHT22;10511;51.232;9.420;2023-04-03T09:27:25;4.50;99.90
20700;DHT22;10511;51.232;9.420;2023-04-03T09:29:55;4.70;99.90
20700;DHT22;10511;51.232;9.420;2023-04-03T09:32:26;5.00;99.90
20700;DHT22;10511;51.232;9.420;2023-04-03T09:34:55;5.20;99.90
20700;DHT22;10511;51.232;9.420;2023-04-03T09:37:37;5.20;99.90
20700;DHT22;10511;51.232;9.420;2023-04-03T09:40:06;5.00;99.90
20700;DHT22;10511;51.232;9.420;2023-04-03T09:42:54;5.20;99.90
20700;DHT22;10511;51.232;9.420;2023-04-03T09:45:24;5.40;99.90
20700;DHT22;10511;51.232;9.420;2023-04-03T09:48:07;5.30;99.90
20700;DHT22;10511;51.232;9.420;2023-04-03T09:50:35;5.50;99.90
20700;DHT22;10511;51.232;9.420;2023-04-03T09:53:05;5.70;99.90
20700;DHT22;10511;51.232;9.420;2023-04-03T09:55:42;5.40;99.90
20700;DHT22;10511;51.232;9.420;2023-04-03T09:58:24;5.20;99.90
20700;DHT22;10511;51.232;9.420;2023-04-03T10:00:56;5.30;99.90
20700;DHT22;10511;51.232;9.420;2023-04-03T10:03:27;5.30;99.90
20700;DHT22;10511;51.232;9.420;2023-04-03T10:05:54;5.00;99.90
20700;DHT22;10511;51.232;9.420;2023-04-03T10:08:25;4.50;99.90
20700;DHT22;10511;51.232;9.420;2023-04-03T10:11:13;4.20;99.90
20700;DHT22;10511;51.232;9.420;2023-04-03T10:13:50;4.10;99.90
20700;DHT22;10511;51.232;9.420;2023-04-03T10:16:22;4.10;99.90
20700;DHT22;10511;51.232;9.420;2023-04-03T10:19:03;4.00;99.90
20700;DHT22;10511;51.232;9.420;2023-04-03T10:21:39;4.30;99.90
20700;DHT22;10511;51.232;9.420;2023-04-03T10:24:11;4.90;99.90
20700;DHT22;10511;51.232;9.420;2023-04-03T10:26:45;5.10;99.90
20700;DHT22;10511;51.232;9.420;2023-04-03T10:29:21;5.50;99.90
20700;DHT22;10511;51.232;9.420;2023-04-03T10:31:58;5.40;99.90
20700;DHT22;10511;51.232;9.420;2023-04-03T10:34:30;5.00;99.90
20700;DHT22;10511;51.232;9.420;2023-04-03T10:37:04;4.10;99.90
20700;DHT22;10511;51.232;9.420;2023-04-03T10:39:37;4.20;99.90
20700;DHT22;10511;51.232;9.420;2023-04-03T10:42:11;5.00;99.90
20700;DHT22;10511;51.232;9.420;2023-04-03T10:47:34;6.00;99.90
20700;DHT22;10511;51.232;9.420;2023-04-03T10:50:15;6.00;99.90
20700;DHT22;10511;51.232;9.420;2023-04-03T10:52:54;6.50;99.90
20700;DHT22;10511;51.232;9.420;2023-04-03T10:55:33;7.00;99.90
20700;DHT22;10511;51.232;9.420;2023-04-03T10:58:02;6.40;99.90
20700;DHT22;10511;51.232;9.420;2023-04-03T11:00:35;6.40;99.90
20700;DHT22;10511;51.232;9.420;2023-04-03T11:03:08;6.30;99.90
20700;DHT22;10511;51.232;9.420;2023-04-03T11:05:40;6.20;99.90
20700;DHT22;10511;51.232;9.420;2023-04-03T11:08:15;5.80;99.90
20700;DHT22;10511;51.232;9.420;2023-04-03T11:10:45;6.00;99.90
20700;DHT22;10511;51.232;9.420;2023-04-03T11:13:15;6.30;99.90
20700;DHT22;10511;51.232;9.420;2023-04-03T11:15:44;6.40;99.90
20700;DHT22;10511;51.232;9.420;2023-04-03T11:18:17;6.30;99.90
20700;DHT22;10511;51.232;9.420;2023-04-03T11:20:58;5.70;99.90
20700;DHT22;10511;51.232;9.420;2023-04-03T11:23:31;5.70;99.90
20700;DHT22;10511;51.232;9.420;2023-04-03T11:26:09;5.90;99.90
20700;DHT22;10511;51.232;9.420;2023-04-03T11:28:36;6.10;99.90
20700;DHT22;10511;51.232;9.420;2023-04-03T11:31:23;5.40;99.90
20700;DHT22;10511;51.232;9.420;2023-04-03T11:34:05;5.30;99.90
20700;DHT22;10511;51.232;9.420;2023-04-03T11:36:40;5.80;99.90
20700;DHT22;10511;51.232;9.420;2023-04-03T11:39:15;6.00;99.90
20700;DHT22;10511;51.232;9.420;2023-04-03T11:41:43;6.20;99.90
20700;DHT22;10511;51.232;9.420;2023-04-03T11:44:30;6.20;99.90
20700;DHT22;10511;51.232;9.420;2023-04-03T11:46:58;6.50;99.90
20700;DHT22;10511;51.232;9.420;2023-04-03T11:49:58;6.40;99.90
20700;DHT22;10511;51.232;9.420;2023-04-03T11:53:00;6.30;99.90
20700;DHT22;10511;51.232;9.420;2023-04-03T11:55:58;6.60;99.90
20700;DHT22;10511;51.232;9.420;2023-04-03T11:58:27;6.90;99.90
20700;DHT22;10511;51.232;9.420;2023-04-03T12:01:09;6.90;99.90
20700;DHT22;10511;51.232;9.420;2023-04-03T12:07:10;6.70;99.90
20700;DHT22;10511;51.232;9.420;2023-04-03T12:10:16;6.90;99.90
20700;DHT22;10511;51.232;9.420;2023-04-03T12:12:56;6.80;99.90
20700;DHT22;10511;51.232;9.420;2023-04-03T12:15:54;6.80;99.90
20700;DHT22;10511;51.232;9.420;2023-04-03T12:18:59;6.80;99.90
20700;DHT22;10511;51.232;9.420;2023-04-03T12:22:13;6.80;99.80
20700;DHT22;10511;51.232;9.420;2023-04-03T12:24:42;6.80;99.90
20700;DHT22;10511;51.232;9.420;2023-04-03T12:27:28;6.70;99.90
20700;DHT22;10511;51.232;9.420;2023-04-03T12:30:04;7.00;99.90
20700;DHT22;10511;51.232;9.420;2023-04-03T12:35:28;7.30;99.90
20700;DHT22;10511;51.232;9.420;2023-04-03T12:38:37;7.40;99.90
20700;DHT22;10511;51.232;9.420;2023-04-03T12:41:23;7.40;99.90
20700;DHT22;10511;51.232;9.420;2023-04-03T12:44:05;6.60;99.90
20700;DHT22;10511;51.232;9.420;2023-04-03T12:46:37;6.20;99.90
20700;DHT22;10511;51.232;9.420;2023-04-03T12:49:20;6.80;99.90
20700;DHT22;10511;51.232;9.420;2023-04-03T12:51:50;6.90;99.90
20700;DHT22;10511;51.232;9.420;2023-04-03T12:54:22;6.70;99.90
20700;DHT22;10511;51.232;9.420;2023-04-03T12:56:49;6.60;99.90
20700;DHT22;10511;51.232;9.420;2023-04-03T12:59:19;6.70;99.90
20700;DHT22;10511;51.232;9.420;2023-04-03T13:01:53;6.90;99.90
20700;DHT22;10511;51.232;9.420;2023-04-03T13:04:20;6.60;99.90
20700;DHT22;10511;51.232;9.420;2023-04-03T13:06:48;6.60;99.90
20700;DHT22;10511;51.232;9.420;2023-04-03T13:09:21;6.90;99.90
20700;DHT22;10511;51.232;9.420;2023-04-03T13:11:49;7.30;99.90
20700;DHT22;10511;51.232;9.420;2023-04-03T13:14:19;7.00;99.60
20700;DHT22;10511;51.232;9.420;2023-04-03T13:16:54;6.90;99.90
20700;DHT22;10511;51.232;9.420;2023-04-03T13:19:23;7.00;99.90
20700;DHT22;10511;51.232;9.420;2023-04-03T13:21:54;7.00;99.70
20700;DHT22;10511;51.232;9.420;2023-04-03T13:24:25;6.80;98.90
20700;DHT22;10511;51.232;9.420;2023-04-03T13:26:52;7.00;99.90
20700;DHT22;10511;51.232;9.420;2023-04-03T13:29:23;7.00;99.60
20700;DHT22;10511;51.232;9.420;2023-04-03T13:31:53;7.00;99.70
20700;DHT22;10511;51.232;9.420;2023-04-03T13:34:22;7.10;99.90
20700;DHT22;10511;51.232;9.420;2023-04-03T13:37:01;7.20;99.90
20700;DHT22;10511;51.232;9.420;2023-04-03T13:39:32;6.90;99.40
20700;DHT22;10511;51.232;9.420;2023-04-03T13:42:02;6.70;99.90
20700;DHT22;10511;51.232;9.420;2023-04-03T13:44:42;6.30;99.40
20700;DHT22;10511;51.232;9.420;2023-04-03T13:47:19;6.30;99.70
20700;DHT22;10511;51.232;9.420;2023-04-03T13:49:59;5.90;99.70
20700;DHT22;10511;51.232;9.420;2023-04-03T13:52:28;5.90;99.80
20700;DHT22;10511;51.232;9.420;2023-04-03T13:54:58;6.30;99.90
20700;DHT22;10511;51.232;9.420;2023-04-03T13:57:26;6.60;99.90
20700;DHT22;10511;51.232;9.420;2023-04-03T13:59:53;7.00;99.90
20700;DHT22;10511;51.232;9.420;2023-04-03T14:02:29;7.00;99.10
20700;DHT22;10511;51.232;9.420;2023-04-03T14:04:58;6.90;99.10
20700;DHT22;10511;51.232;9.420;2023-04-03T14:07:28;6.50;99.80
20700;DHT22;10511;51.232;9.420;2023-04-03T14:09:57;6.50;99.60
20700;DHT22;10511;51.232;9.420;2023-04-03T14:12:27;6.70;99.90
20700;DHT22;10511;51.232;9.420;2023-04-03T14:14:56;6.80;98.70
20700;DHT22;10511;51.232;9.420;2023-04-03T14:17:24;6.90;99.70
20700;DHT22;10511;51.232;9.420;2023-04-03T14:19:52;7.00;99.90
20700;DHT22;10511;51.232;9.420;2023-04-03T14:22:22;6.80;99.90
20700;DHT22;10511;51.232;9.420;2023-04-03T14:24:51;6.70;99.80
20700;DHT22;10511;51.232;9.420;2023-04-03T14:27:22;6.80;99.90
20700;DHT22;10511;51.232;9.420;2023-04-03T14:29:51;6.60;99.70
20700;DHT22;10511;51.232;9.420;2023-04-03T14:32:20;6.30;99.90
20700;DHT22;10511;51.232;9.420;2023-04-03T14:34:47;6.50;99.90
20700;DHT22;10511;51.232;9.420;2023-04-03T14:37:16;6.50;99.20
20700;DHT22;10511;51.232;9.420;2023-04-03T14:39:44;6.60;99.50
20700;DHT22;10511;51.232;9.420;2023-04-03T14:42:16;6.50;99.30
20700;DHT22;10511;51.232;9.420;2023-04-03T14:44:44;6.80;99.90
20700;DHT22;10511;51.232;9.420;2023-04-03T14:47:12;6.70;98.90
20700;DHT22;10511;51.232;9.420;2023-04-03T14:49:41;6.40;99.10
20700;DHT22;10511;51.232;9.420;2023-04-03T14:52:17;6.40;99.20
20700;DHT22;10511;51.232;9.420;2023-04-03T14:54:45;6.50;99.40
20700;DHT22;10511;51.232;9.420;2023-04-03T14:57:15;6.50;99.70
20700;DHT22;10511;51.232;9.420;2023-04-03T14:59:44;6.30;99.10
20700;DHT22;10511;51.232;9.420;2023-04-03T15:02:25;6.40;99.60
20700;DHT22;10511;51.232;9.420;2023-04-03T15:04:53;6.40;99.30
20700;DHT22;10511;51.232;9.420;2023-04-03T15:07:20;6.30;98.10
20700;DHT22;10511;51.232;9.420;2023-04-03T15:09:50;6.30;98.00
20700;DHT22;10511;51.232;9.420;2023-04-03T15:12:17;6.40;98.90
20700;DHT22;10511;51.232;9.420;2023-04-03T15:14:45;6.30;98.90
20700;DHT22;10511;51.232;9.420;2023-04-03T15:17:17;6.20;98.80
20700;DHT22;10511;51.232;9.420;2023-04-03T15:19:44;6.20;98.70
20700;DHT22;10511;51.232;9.420;2023-04-03T15:22:13;6.20;99.40
20700;DHT22;10511;51.232;9.420;2023-04-03T15:24:41;5.90;98.20
20700;DHT22;10511;51.232;9.420;2023-04-03T15:27:09;5.70;98.60
20700;DHT22;10511;51.232;9.420;2023-04-03T15:29:36;5.80;99.00
20700;DHT22;10511;51.232;9.420;2023-04-03T15:32:05;5.90;99.60
20700;DHT22;10511;51.232;9.420;2023-04-03T15:34:32;5.80;99.10
20700;DHT22;10511;51.232;9.420;2023-04-03T15:36:59;5.80;99.60
20700;DHT22;10511;51.232;9.420;2023-04-03T15:39:26;5.90;99.90
20700;DHT22;10511;51.232;9.420;2023-04-03T15:41:53;5.80;98.80
20700;DHT22;10511;51.232;9.420;2023-04-03T15:44:21;5.80;98.90
20700;DHT22;10511;51.232;9.420;2023-04-03T15:46:48;5.90;99.90
20700;DHT22;10511;51.232;9.420;2023-04-03T15:49:19;5.80;99.60
20700;DHT22;10511;51.232;9.420;2023-04-03T15:51:46;5.70;99.70
20700;DHT22;10511;51.232;9.420;2023-04-03T15:54:13;5.70;99.90
20700;DHT22;10511;51.232;9.420;2023-04-03T15:56:40;5.70;99.90
20700;DHT22;10511;51.232;9.420;2023-04-03T15:59:06;5.90;99.40
20700;DHT22;10511;51.232;9.420;2023-04-03T16:01:33;5.80;99.30
20700;DHT22;10511;51.232;9.420;2023-04-03T16:04:00;5.80;99.40
20700;DHT22;10511;51.232;9.420;2023-04-03T16:06:29;5.60;98.70
20700;DHT22;10511;51.232;9.420;2023-04-03T16:08:57;5.50;98.90
20700;DHT22;10511;51.232;9.420;2023-04-03T16:11:24;5.40;99.90